createdAt,value
2018-09-19T00:00:06.037Z,51.17
2018-09-19T00:00:41.217Z,51.87
2018-09-19T00:01:16.577Z,52.02
2018-09-19T00:01:51.791Z,52.03
2018-09-19T00:02:26.969Z,52.08
2018-09-19T00:03:02.133Z,51.31
2018-09-19T00:03:37.318Z,51.19
2018-09-19T00:04:12.665Z,50.73
2018-09-19T00:04:47.986Z,51.99
2018-09-19T00:05:23.203Z,52.00
2018-09-19T00:05:58.520Z,51.16
2018-09-19T00:06:33.669Z,51.46
2018-09-19T00:07:08.816Z,52.10
2018-09-19T00:07:44.622Z,51.63
2018-09-19T00:08:19.901Z,51.46
2018-09-19T00:08:55.086Z,51.12
2018-09-19T00:09:30.279Z,51.70
2018-09-19T00:10:05.672Z,51.69
2018-09-19T00:10:41.036Z,51.44
2018-09-19T00:11:16.341Z,50.88
2018-09-19T00:11:51.562Z,50.93
2018-09-19T00:12:26.702Z,51.67
2018-09-19T00:13:01.878Z,51.78
2018-09-19T00:13:37.242Z,51.30
2018-09-19T00:14:12.562Z,51.81
2018-09-19T00:14:47.979Z,51.88
2018-09-19T00:15:23.200Z,51.18
2018-09-19T00:15:58.373Z,51.22
2018-09-19T00:16:33.765Z,51.82
2018-09-19T00:17:08.960Z,51.67
2018-09-19T00:17:44.371Z,51.09
2018-09-19T00:18:19.712Z,51.65
2018-09-19T00:18:54.888Z,51.78
2018-09-19T00:19:30.195Z,52.74
2018-09-19T00:20:05.756Z,51.67
2018-09-19T00:20:41.156Z,51.31
2018-09-19T00:21:16.519Z,51.56
2018-09-19T00:21:51.813Z,51.31
2018-09-19T00:22:27.136Z,52.00
2018-09-19T00:23:02.315Z,51.23
2018-09-19T00:23:37.537Z,51.03
2018-09-19T00:24:12.848Z,51.52
2018-09-19T00:24:48.340Z,51.65
2018-09-19T00:25:23.534Z,51.89
2018-09-19T00:25:58.694Z,51.16
2018-09-19T00:26:33.874Z,51.89
2018-09-19T00:27:09.051Z,51.35
2018-09-19T00:27:44.495Z,51.54
2018-09-19T00:28:20.132Z,50.87
2018-09-19T00:28:55.326Z,51.42
2018-09-19T00:29:30.516Z,51.75
2018-09-19T00:30:05.695Z,51.94
2018-09-19T00:30:40.965Z,51.38
2018-09-19T00:31:16.276Z,52.08
2018-09-19T00:31:51.459Z,52.03
2018-09-19T00:32:26.645Z,51.52
2018-09-19T00:33:01.998Z,51.56
2018-09-19T00:33:37.188Z,52.37
2018-09-19T00:34:12.486Z,51.88
2018-09-19T00:34:47.863Z,52.31
2018-09-19T00:35:22.967Z,51.19
2018-09-19T00:35:58.145Z,51.42
2018-09-19T00:36:33.399Z,51.58
2018-09-19T00:37:08.563Z,51.99
2018-09-19T00:37:44.138Z,51.82
2018-09-19T00:38:19.447Z,52.07
2018-09-19T00:38:54.975Z,52.02
2018-09-19T00:39:30.138Z,51.75
2018-09-19T00:40:05.359Z,51.43
2018-09-19T00:40:40.939Z,51.94
2018-09-19T00:41:16.308Z,51.51
2018-09-19T00:41:51.600Z,52.46
2018-09-19T00:42:26.957Z,52.44
2018-09-19T00:43:02.163Z,51.65
2018-09-19T00:43:37.368Z,51.64
2018-09-19T00:44:12.975Z,51.82
2018-09-19T00:44:48.272Z,52.51
2018-09-19T00:45:23.472Z,51.91
2018-09-19T00:45:58.689Z,51.62
2018-09-19T00:46:33.861Z,52.16
2018-09-19T00:47:09.042Z,51.40
2018-09-19T00:47:44.411Z,51.99
2018-09-19T00:48:19.925Z,52.18
2018-09-19T00:48:55.153Z,51.62
2018-09-19T00:49:30.321Z,51.49
2018-09-19T00:50:05.687Z,51.86
2018-09-19T00:50:41.143Z,52.24
2018-09-19T00:51:16.415Z,52.09
2018-09-19T00:51:51.629Z,51.39
2018-09-19T00:52:27.101Z,51.19
2018-09-19T00:53:02.282Z,51.87
2018-09-19T00:53:37.499Z,51.49
2018-09-19T00:54:13.300Z,52.01
2018-09-19T00:54:48.616Z,52.29
2018-09-19T00:55:23.788Z,51.79
2018-09-19T00:55:59.032Z,52.30
2018-09-19T00:56:34.366Z,52.08
2018-09-19T00:57:09.580Z,51.92
2018-09-19T00:57:45.290Z,51.89
2018-09-19T00:58:20.647Z,52.69
2018-09-19T00:58:55.834Z,52.61
2018-09-19T00:59:31.078Z,51.73
2018-09-19T01:00:06.780Z,52.48
2018-09-19T01:00:42.270Z,52.55
2018-09-19T01:01:17.812Z,52.06
2018-09-19T01:01:53.027Z,52.14
2018-09-19T01:02:28.202Z,53.09
2018-09-19T01:03:03.358Z,52.59
2018-09-19T01:03:38.916Z,53.17
2018-09-19T01:04:14.548Z,52.47
2018-09-19T01:04:50.047Z,52.13
2018-09-19T01:05:25.268Z,51.97
2018-09-19T01:06:00.433Z,52.64
2018-09-19T01:06:35.603Z,52.20
2018-09-19T01:07:10.764Z,52.27
2018-09-19T01:07:46.421Z,52.32
2018-09-19T01:08:21.681Z,52.28
2018-09-19T01:09:38.162Z,52.22
2018-09-19T01:10:14.067Z,52.75
2018-09-19T01:10:49.642Z,53.03
2018-09-19T01:11:24.838Z,52.68
2018-09-19T01:11:59.990Z,53.03
2018-09-19T01:12:35.144Z,53.00
2018-09-19T01:13:10.389Z,52.95
2018-09-19T01:13:45.718Z,52.40
2018-09-19T01:14:21.011Z,53.23
2018-09-19T01:14:56.206Z,53.20
2018-09-19T01:15:31.349Z,52.75
2018-09-19T01:16:07.259Z,52.12
2018-09-19T01:16:42.710Z,52.28
2018-09-19T01:17:20.288Z,52.71
2018-09-19T01:17:55.646Z,52.67
2018-09-19T01:18:32.116Z,52.50
2018-09-19T01:19:07.517Z,53.51
2018-09-19T01:19:43.173Z,52.89
2018-09-19T01:20:19.537Z,52.61
2018-09-19T01:20:54.869Z,52.60
2018-09-19T01:21:30.057Z,53.17
2018-09-19T01:22:05.294Z,53.04
2018-09-19T01:22:40.557Z,52.54
2018-09-19T01:23:15.972Z,52.97
2018-09-19T01:23:51.432Z,53.12
2018-09-19T01:24:26.683Z,52.80
2018-09-19T01:25:02.041Z,52.17
2018-09-19T01:25:37.696Z,52.47
2018-09-19T01:26:13.572Z,52.14
2018-09-19T01:26:49.131Z,52.43
2018-09-19T01:27:25.575Z,52.79
2018-09-19T01:28:01.197Z,52.86
2018-09-19T01:28:36.511Z,51.99
2018-09-19T01:29:12.806Z,52.07
2018-09-19T01:29:49.061Z,52.48
2018-09-19T01:30:24.575Z,52.16
2018-09-19T01:30:59.906Z,52.63
2018-09-19T01:31:35.441Z,51.74
2018-09-19T01:32:11.013Z,52.87
2018-09-19T01:32:47.071Z,52.68
2018-09-19T01:33:23.630Z,52.80
2018-09-19T01:33:59.196Z,52.28
2018-09-19T01:34:34.893Z,52.60
2018-09-19T01:35:11.191Z,52.30
2018-09-19T01:35:46.957Z,52.45
2018-09-19T01:36:22.439Z,51.94
2018-09-19T01:36:57.961Z,51.99
2018-09-19T01:37:33.608Z,52.06
2018-09-19T01:38:09.651Z,52.66
2018-09-19T01:38:45.302Z,52.76
2018-09-19T01:39:20.886Z,52.99
2018-09-19T01:39:56.332Z,52.79
2018-09-19T01:40:31.812Z,52.28
2018-09-19T01:41:08.332Z,52.29
2018-09-19T01:41:43.808Z,52.31
2018-09-19T01:42:19.415Z,52.07
2018-09-19T01:42:55.754Z,52.81
2018-09-19T01:43:31.369Z,52.30
2018-09-19T01:44:06.709Z,52.38
2018-09-19T01:44:42.035Z,52.26
2018-09-19T01:45:17.995Z,52.87
2018-09-19T01:45:53.309Z,52.81
2018-09-19T01:46:28.542Z,52.89
2018-09-19T01:47:05.953Z,52.24
2018-09-19T01:47:41.298Z,52.08
2018-09-19T01:48:17.162Z,52.73
2018-09-19T01:48:52.443Z,52.50
2018-09-19T01:49:27.743Z,52.68
2018-09-19T01:50:03.139Z,52.41
2018-09-19T01:50:39.712Z,52.22
2018-09-19T01:51:16.329Z,52.82
2018-09-19T01:51:54.395Z,52.40
2018-09-19T01:52:29.680Z,52.54
2018-09-19T01:53:05.490Z,52.29
2018-09-19T01:53:41.247Z,52.27
2018-09-19T01:54:16.708Z,52.03
2018-09-19T01:54:52.008Z,52.91
2018-09-19T01:55:27.191Z,51.91
2018-09-19T01:56:02.503Z,52.31
2018-09-19T01:56:37.658Z,52.51
2018-09-19T01:57:12.954Z,52.53
2018-09-19T01:57:48.304Z,52.56
2018-09-19T01:58:23.526Z,52.49
2018-09-19T01:58:58.708Z,52.27
2018-09-19T01:59:34.011Z,52.09
2018-09-19T02:00:09.421Z,52.79
2018-09-19T02:00:44.712Z,52.05
2018-09-19T02:01:20.010Z,52.08
2018-09-19T02:01:55.201Z,52.99
2018-09-19T02:02:30.561Z,52.18
2018-09-19T02:03:05.817Z,52.71
2018-09-19T02:03:41.024Z,51.87
2018-09-19T02:04:16.576Z,52.48
2018-09-19T02:04:51.818Z,52.84
2018-09-19T02:05:27.520Z,52.05
2018-09-19T02:06:02.205Z,52.71
2018-09-19T02:06:37.488Z,52.19
2018-09-19T02:07:12.890Z,53.29
2018-09-19T02:07:48.154Z,52.45
2018-09-19T02:08:23.326Z,52.86
2018-09-19T02:08:58.535Z,52.22
2018-09-19T02:09:33.722Z,52.11
2018-09-19T02:10:09.080Z,53.05
2018-09-19T02:10:44.560Z,53.10
2018-09-19T02:11:20.039Z,53.23
2018-09-19T02:11:55.217Z,53.18
2018-09-19T02:12:30.377Z,53.24
2018-09-19T02:13:05.545Z,53.00
2018-09-19T02:13:40.743Z,52.67
2018-09-19T02:14:16.148Z,52.72
2018-09-19T02:14:51.387Z,52.68
2018-09-19T02:15:26.562Z,52.35
2018-09-19T02:16:01.736Z,52.09
2018-09-19T02:16:37.353Z,52.78
2018-09-19T02:17:12.709Z,52.82
2018-09-19T02:17:48.035Z,52.70
2018-09-19T02:18:23.224Z,52.65
2018-09-19T02:18:58.386Z,52.38
2018-09-19T02:19:33.540Z,52.49
2018-09-19T02:20:08.723Z,52.43
2018-09-19T02:20:44.030Z,52.21
2018-09-19T02:21:19.388Z,52.10
2018-09-19T02:21:54.604Z,52.66
2018-09-19T02:22:30.313Z,52.77
2018-09-19T02:23:05.678Z,52.47
2018-09-19T02:23:40.905Z,52.37
2018-09-19T02:24:16.201Z,53.05
2018-09-19T02:24:51.411Z,52.58
2018-09-19T02:25:26.582Z,52.80
2018-09-19T02:26:01.776Z,52.69
2018-09-19T02:26:36.958Z,52.43
2018-09-19T02:27:12.308Z,52.56
2018-09-19T02:27:47.749Z,52.35
2018-09-19T02:28:23.352Z,52.36
2018-09-19T02:28:58.743Z,52.98
2018-09-19T02:29:34.279Z,52.98
2018-09-19T02:30:09.561Z,52.95
2018-09-19T02:30:45.007Z,52.34
2018-09-19T02:31:20.295Z,52.39
2018-09-19T02:31:55.478Z,52.54
2018-09-19T02:32:30.658Z,53.21
2018-09-19T02:33:06.028Z,52.89
2018-09-19T02:33:41.234Z,52.13
2018-09-19T02:34:16.593Z,52.49
2018-09-19T02:34:51.823Z,52.13
2018-09-19T02:35:27.017Z,52.19
2018-09-19T02:36:02.445Z,53.11
2018-09-19T02:36:37.615Z,52.58
2018-09-19T02:37:13.043Z,52.79
2018-09-19T02:37:48.618Z,53.22
2018-09-19T02:38:23.802Z,53.17
2018-09-19T02:38:59.223Z,52.58
2018-09-19T02:39:34.397Z,52.49
2018-09-19T02:40:09.635Z,52.58
2018-09-19T02:40:45.065Z,53.52
2018-09-19T02:41:20.780Z,52.79
2018-09-19T02:41:55.972Z,52.71
2018-09-19T02:42:31.127Z,52.67
2018-09-19T02:43:06.399Z,52.56
2018-09-19T02:43:41.691Z,53.12
2018-09-19T02:44:17.498Z,52.81
2018-09-19T02:44:52.725Z,53.23
2018-09-19T02:45:27.942Z,53.24
2018-09-19T02:46:03.221Z,52.93
2018-09-19T02:46:38.535Z,52.82
2018-09-19T02:47:13.892Z,53.23
2018-09-19T02:47:49.218Z,52.89
2018-09-19T02:48:24.413Z,52.97
2018-09-19T02:48:59.638Z,53.46
2018-09-19T02:49:34.813Z,52.99
2018-09-19T02:50:10.046Z,53.36
2018-09-19T02:50:45.583Z,53.06
2018-09-19T02:51:20.803Z,53.96
2018-09-19T02:51:58.193Z,53.25
2018-09-19T02:52:33.378Z,53.98
2018-09-19T02:53:08.785Z,53.29
2018-09-19T02:53:45.059Z,53.08
2018-09-19T02:54:20.338Z,53.16
2018-09-19T02:54:55.507Z,53.06
2018-09-19T02:55:30.681Z,53.74
2018-09-19T02:56:06.272Z,53.33
2018-09-19T02:56:42.114Z,54.03
2018-09-19T02:57:17.364Z,54.01
2018-09-19T02:57:52.605Z,53.52
2018-09-19T02:58:27.891Z,53.38
2018-09-19T02:59:03.092Z,54.17
2018-09-19T02:59:38.466Z,54.09
2018-09-19T03:00:14.003Z,54.41
2018-09-19T03:00:49.275Z,53.92
2018-09-19T03:01:24.597Z,54.69
2018-09-19T03:02:00.299Z,54.14
2018-09-19T03:02:35.466Z,53.13
2018-09-19T03:03:10.660Z,53.90
2018-09-19T03:03:46.346Z,54.07
2018-09-19T03:04:21.519Z,53.43
2018-09-19T03:04:56.914Z,52.99
2018-09-19T03:05:32.306Z,53.93
2018-09-19T03:06:07.509Z,54.04
2018-09-19T03:06:42.902Z,53.57
2018-09-19T03:07:18.326Z,53.73
2018-09-19T03:07:53.542Z,54.09
2018-09-19T03:08:29.074Z,54.47
2018-09-19T03:09:04.810Z,54.38
2018-09-19T03:09:40.098Z,54.07
2018-09-19T03:10:15.625Z,54.68
2018-09-19T03:10:50.837Z,54.42
2018-09-19T03:11:26.021Z,55.00
2018-09-19T03:12:01.226Z,54.97
2018-09-19T03:12:36.530Z,55.10
2018-09-19T03:13:11.241Z,54.90
2018-09-19T03:13:46.767Z,54.34
2018-09-19T03:14:22.487Z,54.39
2018-09-19T03:14:57.750Z,54.40
2018-09-19T03:15:32.956Z,55.34
2018-09-19T03:16:08.147Z,55.25
2018-09-19T03:16:43.522Z,54.24
2018-09-19T03:17:18.790Z,54.71
2018-09-19T03:17:54.244Z,55.13
2018-09-19T03:18:29.410Z,54.96
2018-09-19T03:19:04.607Z,54.98
2018-09-19T03:19:39.800Z,54.06
2018-09-19T03:20:15.070Z,54.88
2018-09-19T03:20:50.773Z,54.64
2018-09-19T03:21:25.994Z,54.61
2018-09-19T03:22:01.279Z,54.53
2018-09-19T03:22:36.449Z,54.78
2018-09-19T03:23:11.719Z,54.22
2018-09-19T03:23:47.018Z,54.50
2018-09-19T03:24:22.269Z,54.07
2018-09-19T03:24:57.470Z,55.11
2018-09-19T03:25:32.686Z,54.78
2018-09-19T03:26:08.077Z,54.88
2018-09-19T03:26:43.540Z,54.50
2018-09-19T03:27:18.875Z,54.94
2018-09-19T03:27:54.029Z,54.53
2018-09-19T03:28:29.262Z,54.30
2018-09-19T03:29:04.510Z,54.76
2018-09-19T03:29:39.719Z,54.23
2018-09-19T03:30:15.372Z,55.00
2018-09-19T03:30:50.684Z,54.32
2018-09-19T03:31:26.049Z,54.97
2018-09-19T03:32:01.285Z,54.60
2018-09-19T03:32:36.664Z,54.06
2018-09-19T03:33:11.436Z,55.32
2018-09-19T03:33:47.057Z,54.47
2018-09-19T03:34:22.547Z,55.08
2018-09-19T03:34:57.690Z,54.88
2018-09-19T03:35:33.404Z,54.66
2018-09-19T03:36:08.755Z,54.69
2018-09-19T03:36:44.235Z,54.72
2018-09-19T03:37:19.630Z,54.61
2018-09-19T03:37:55.123Z,54.34
2018-09-19T03:38:30.351Z,54.98
2018-09-19T03:39:08.255Z,54.31
2018-09-19T03:39:43.679Z,54.79
2018-09-19T03:40:18.967Z,54.52
2018-09-19T03:40:54.172Z,54.73
2018-09-19T03:41:29.452Z,54.66
2018-09-19T03:42:04.671Z,54.22
2018-09-19T03:42:39.854Z,54.40
2018-09-19T03:43:15.136Z,54.52
2018-09-19T03:43:50.459Z,54.14
2018-09-19T03:44:25.699Z,54.33
2018-09-19T03:45:00.914Z,55.16
2018-09-19T03:45:36.081Z,55.23
2018-09-19T03:46:11.302Z,54.74
2018-09-19T03:46:46.762Z,54.51
2018-09-19T03:47:22.062Z,54.83
2018-09-19T03:47:57.246Z,54.66
2018-09-19T03:48:32.459Z,54.79
2018-09-19T03:49:08.577Z,54.86
2018-09-19T03:49:43.938Z,55.01
2018-09-19T03:50:19.273Z,54.89
2018-09-19T03:50:54.472Z,54.48
2018-09-19T03:51:29.655Z,54.53
2018-09-19T03:52:04.377Z,54.87
2018-09-19T03:52:39.573Z,54.29
2018-09-19T03:53:14.902Z,54.18
2018-09-19T03:53:50.130Z,54.93
2018-09-19T03:54:25.363Z,54.31
2018-09-19T03:55:00.575Z,55.29
2018-09-19T03:55:35.772Z,55.43
2018-09-19T03:56:11.489Z,55.33
2018-09-19T03:56:46.762Z,54.56
2018-09-19T03:57:22.047Z,55.27
2018-09-19T03:57:57.236Z,54.74
2018-09-19T03:58:32.604Z,54.89
2018-09-19T03:59:07.973Z,54.83
2018-09-19T03:59:43.279Z,54.74
2018-09-19T04:00:18.664Z,55.13
2018-09-19T04:00:53.862Z,54.46
2018-09-19T04:01:29.067Z,55.01
2018-09-19T04:02:04.957Z,54.79
2018-09-19T04:02:40.568Z,55.17
2018-09-19T04:03:15.849Z,55.28
2018-09-19T04:03:51.140Z,55.23
2018-09-19T04:04:26.531Z,55.20
2018-09-19T04:05:01.677Z,54.97
2018-09-19T04:05:36.830Z,54.87
2018-09-19T04:06:12.435Z,54.95
2018-09-19T04:06:47.724Z,54.57
2018-09-19T04:07:22.954Z,54.90
2018-09-19T04:07:58.129Z,54.52
2018-09-19T04:08:32.827Z,54.95
2018-09-19T04:09:12.555Z,55.63
2018-09-19T04:09:47.974Z,55.49
2018-09-19T04:10:23.197Z,55.12
2018-09-19T04:10:58.431Z,54.75
2018-09-19T04:11:33.597Z,54.96
2018-09-19T04:12:08.807Z,55.09
2018-09-19T04:12:44.122Z,55.27
2018-09-19T04:13:19.378Z,54.95
2018-09-19T04:13:54.580Z,55.54
2018-09-19T04:14:29.749Z,55.03
2018-09-19T04:15:05.097Z,55.09
2018-09-19T04:15:40.268Z,55.88
2018-09-19T04:16:15.596Z,56.22
2018-09-19T04:16:50.840Z,56.06
2018-09-19T04:17:26.028Z,56.11
2018-09-19T04:18:01.273Z,55.56
2018-09-19T04:18:36.447Z,55.74
2018-09-19T04:19:11.676Z,55.99
2018-09-19T04:19:47.211Z,55.79
2018-09-19T04:20:22.415Z,55.76
2018-09-19T04:20:57.585Z,55.84
2018-09-19T04:21:33.123Z,55.52
2018-09-19T04:22:08.340Z,55.34
2018-09-19T04:22:43.646Z,55.95
2018-09-19T04:23:18.879Z,55.45
2018-09-19T04:23:54.039Z,55.86
2018-09-19T04:24:29.240Z,56.24
2018-09-19T04:25:04.853Z,56.02
2018-09-19T04:25:40.044Z,55.79
2018-09-19T04:26:15.088Z,55.28
2018-09-19T04:26:50.136Z,55.66
2018-09-19T04:27:24.877Z,55.80
2018-09-19T04:28:00.073Z,56.33
2018-09-19T04:28:35.258Z,56.23
2018-09-19T04:29:10.558Z,56.00
2018-09-19T04:29:45.828Z,56.66
2018-09-19T04:30:21.141Z,56.29
2018-09-19T04:30:56.346Z,56.02
2018-09-19T04:31:31.542Z,56.74
2018-09-19T04:32:07.005Z,56.52
2018-09-19T04:32:42.525Z,55.92
2018-09-19T04:33:17.919Z,55.66
2018-09-19T04:33:53.119Z,56.26
2018-09-19T04:34:28.327Z,56.30
2018-09-19T04:35:03.946Z,56.23
2018-09-19T04:35:39.111Z,56.54
2018-09-19T04:36:14.402Z,56.85
2018-09-19T04:36:50.070Z,56.40
2018-09-19T04:37:25.281Z,56.57
2018-09-19T04:38:00.432Z,56.85
2018-09-19T04:38:35.741Z,56.28
2018-09-19T04:39:12.413Z,56.85
2018-09-19T04:39:47.715Z,56.50
2018-09-19T04:40:22.970Z,56.54
2018-09-19T04:40:58.145Z,56.72
2018-09-19T04:41:33.388Z,56.49
2018-09-19T04:42:08.078Z,56.30
2018-09-19T04:42:43.644Z,56.79
2018-09-19T04:43:18.925Z,56.42
2018-09-19T04:43:54.130Z,56.29
2018-09-19T04:44:29.312Z,56.30
2018-09-19T04:45:04.590Z,56.88
2018-09-19T04:45:39.905Z,56.41
2018-09-19T04:46:15.261Z,56.68
2018-09-19T04:46:50.645Z,56.93
2018-09-19T04:47:25.861Z,56.49
2018-09-19T04:48:01.059Z,56.68
2018-09-19T04:48:36.390Z,57.05
2018-09-19T04:49:11.713Z,56.65
2018-09-19T04:49:46.988Z,57.41
2018-09-19T04:50:22.202Z,56.56
2018-09-19T04:50:57.356Z,56.55
2018-09-19T04:51:32.670Z,56.46
2018-09-19T04:52:08.187Z,56.98
2018-09-19T04:52:43.541Z,57.19
2018-09-19T04:53:18.947Z,57.05
2018-09-19T04:53:54.186Z,56.90
2018-09-19T04:54:29.571Z,57.56
2018-09-19T04:55:06.182Z,57.45
2018-09-19T04:55:41.412Z,57.24
2018-09-19T04:56:16.737Z,57.76
2018-09-19T04:56:52.214Z,57.34
2018-09-19T04:57:27.428Z,57.45
2018-09-19T04:58:02.591Z,57.27
2018-09-19T04:58:37.988Z,57.30
2018-09-19T04:59:13.768Z,57.41
2018-09-19T04:59:49.586Z,57.24
2018-09-19T05:00:24.831Z,57.33
2018-09-19T05:01:00.003Z,56.82
2018-09-19T05:01:35.390Z,56.99
2018-09-19T05:02:10.705Z,57.23
2018-09-19T05:02:46.075Z,57.42
2018-09-19T05:03:21.289Z,57.54
2018-09-19T05:03:56.510Z,56.73
2018-09-19T05:04:31.717Z,57.62
2018-09-19T05:05:06.971Z,57.46
2018-09-19T05:05:42.396Z,57.31
2018-09-19T05:06:18.015Z,56.96
2018-09-19T05:06:53.213Z,57.73
2018-09-19T05:07:28.442Z,57.18
2018-09-19T05:08:03.820Z,57.27
2018-09-19T05:08:39.008Z,56.43
2018-09-19T05:09:14.333Z,56.73
2018-09-19T05:09:49.772Z,57.03
2018-09-19T05:10:25.111Z,57.50
2018-09-19T05:11:00.300Z,56.76
2018-09-19T05:11:35.731Z,57.33
2018-09-19T05:12:11.012Z,57.49
2018-09-19T05:12:46.324Z,57.40
2018-09-19T05:13:21.593Z,57.13
2018-09-19T05:13:56.769Z,57.29
2018-09-19T05:14:31.971Z,57.30
2018-09-19T05:15:07.162Z,57.05
2018-09-19T05:15:42.567Z,57.44
2018-09-19T05:16:18.126Z,57.46
2018-09-19T05:16:53.384Z,57.29
2018-09-19T05:17:28.620Z,56.61
2018-09-19T05:18:04.007Z,57.25
2018-09-19T05:18:39.194Z,56.79
2018-09-19T05:19:14.557Z,56.83
2018-09-19T05:19:49.948Z,57.32
2018-09-19T05:20:25.546Z,57.10
2018-09-19T05:21:00.720Z,57.09
2018-09-19T05:21:35.920Z,57.72
2018-09-19T05:22:11.767Z,57.09
2018-09-19T05:22:47.217Z,57.23
2018-09-19T05:23:22.534Z,56.78
2018-09-19T05:23:57.802Z,57.28
2018-09-19T05:24:32.978Z,56.79
2018-09-19T05:25:08.209Z,57.06
2018-09-19T05:25:43.583Z,57.45
2018-09-19T05:26:19.346Z,56.71
2018-09-19T05:26:54.880Z,57.23
2018-09-19T05:27:30.101Z,56.68
2018-09-19T05:28:05.287Z,56.85
2018-09-19T05:28:41.568Z,56.96
2018-09-19T05:29:16.846Z,56.61
2018-09-19T05:29:52.266Z,57.10
2018-09-19T05:30:27.574Z,56.44
2018-09-19T05:31:02.801Z,57.23
2018-09-19T05:31:37.988Z,57.01
2018-09-19T05:32:13.533Z,56.61
2018-09-19T05:32:48.892Z,56.92
2018-09-19T05:33:24.119Z,57.54
2018-09-19T05:33:59.328Z,57.32
2018-09-19T05:34:34.513Z,57.27
2018-09-19T05:35:09.732Z,56.56
2018-09-19T05:35:45.292Z,56.93
2018-09-19T05:36:20.561Z,56.00
2018-09-19T05:36:55.766Z,56.80
2018-09-19T05:37:30.935Z,56.48
2018-09-19T05:38:06.152Z,56.74
2018-09-19T05:38:42.082Z,56.72
2018-09-19T05:39:17.419Z,56.02
2018-09-19T05:39:52.771Z,56.42
2018-09-19T05:40:27.939Z,56.25
2018-09-19T05:41:03.266Z,57.00
2018-09-19T05:41:38.433Z,56.35
2018-09-19T05:42:13.895Z,56.15
2018-09-19T05:42:49.309Z,56.60
2018-09-19T05:43:24.522Z,56.38
2018-09-19T05:43:59.732Z,56.46
2018-09-19T05:44:34.941Z,56.65
2018-09-19T05:45:10.189Z,57.21
2018-09-19T05:45:45.793Z,56.77
2018-09-19T05:46:21.271Z,56.02
2018-09-19T05:46:56.707Z,56.06
2018-09-19T05:47:31.894Z,55.64
2018-09-19T05:48:07.300Z,55.59
2018-09-19T05:48:42.916Z,56.23
2018-09-19T05:49:18.459Z,56.30
2018-09-19T05:49:53.760Z,56.70
2018-09-19T05:50:28.990Z,56.62
2018-09-19T05:51:04.624Z,56.54
2018-09-19T05:51:39.798Z,55.77
2018-09-19T05:52:15.160Z,56.14
2018-09-19T05:52:50.632Z,55.40
2018-09-19T05:53:25.842Z,55.68
2018-09-19T05:54:01.195Z,56.07
2018-09-19T05:54:36.419Z,56.35
2018-09-19T05:55:11.887Z,56.33
2018-09-19T05:55:47.335Z,56.36
2018-09-19T05:56:22.696Z,55.60
2018-09-19T05:56:57.894Z,56.37
2018-09-19T05:57:33.115Z,55.80
2018-09-19T05:58:08.326Z,56.07
2018-09-19T05:58:43.707Z,56.13
2018-09-19T05:59:19.329Z,56.29
2018-09-19T05:59:54.712Z,56.21
2018-09-19T06:00:29.927Z,55.72
2018-09-19T06:01:05.149Z,56.08
2018-09-19T06:01:40.388Z,56.51
2018-09-19T06:02:16.080Z,56.39
2018-09-19T06:02:51.469Z,56.41
2018-09-19T06:03:26.644Z,56.35
2018-09-19T06:04:01.988Z,56.16
2018-09-19T06:04:37.166Z,55.99
2018-09-19T06:05:13.045Z,56.00
2018-09-19T06:05:48.488Z,56.47
2018-09-19T06:06:24.160Z,56.68
2018-09-19T06:06:59.476Z,56.61
2018-09-19T06:07:34.663Z,55.74
2018-09-19T06:08:09.853Z,55.93
2018-09-19T06:08:48.492Z,56.38
2018-09-19T06:09:24.023Z,55.55
2018-09-19T06:09:59.210Z,56.26
2018-09-19T06:10:34.578Z,56.18
2018-09-19T06:11:09.970Z,55.18
2018-09-19T06:11:45.459Z,55.97
2018-09-19T06:12:21.185Z,55.17
2018-09-19T06:12:56.779Z,55.30
2018-09-19T06:13:32.131Z,55.22
2018-09-19T06:14:07.664Z,56.21
2018-09-19T06:14:43.038Z,55.71
2018-09-19T06:15:18.406Z,55.78
2018-09-19T06:15:53.806Z,55.68
2018-09-19T06:16:29.000Z,55.86
2018-09-19T06:17:04.214Z,56.32
2018-09-19T06:17:39.450Z,56.19
2018-09-19T06:18:15.113Z,56.27
2018-09-19T06:18:50.700Z,56.23
2018-09-19T06:19:29.661Z,55.94
2018-09-19T06:20:07.331Z,55.96
2018-09-19T06:20:48.966Z,55.58
2018-09-19T06:21:24.850Z,55.50
2018-09-19T06:22:00.001Z,56.29
2018-09-19T06:22:35.186Z,55.88
2018-09-19T06:23:10.426Z,55.25
2018-09-19T06:23:46.321Z,55.52
2018-09-19T06:24:21.935Z,55.35
2018-09-19T06:24:57.238Z,56.03
2018-09-19T06:25:32.592Z,55.53
2018-09-19T06:26:08.463Z,55.77
2018-09-19T06:26:43.803Z,55.32
2018-09-19T06:27:19.064Z,55.40
2018-09-19T06:27:54.277Z,55.32
2018-09-19T06:28:29.471Z,55.83
2018-09-19T06:29:04.636Z,55.52
2018-09-19T06:29:39.351Z,54.89
2018-09-19T06:30:14.948Z,55.64
2018-09-19T06:30:50.564Z,54.95
2018-09-19T06:31:26.054Z,54.83
2018-09-19T06:32:01.238Z,55.15
2018-09-19T06:32:36.465Z,54.74
2018-09-19T06:33:12.013Z,54.36
2018-09-19T06:33:47.419Z,54.98
2018-09-19T06:34:22.788Z,54.60
2018-09-19T06:34:58.102Z,54.97
2018-09-19T06:35:33.277Z,54.77
2018-09-19T06:36:08.477Z,54.97
2018-09-19T06:36:43.885Z,54.54
2018-09-19T06:37:19.163Z,54.43
2018-09-19T06:37:54.452Z,54.39
2018-09-19T06:38:29.674Z,54.96
2018-09-19T06:39:06.238Z,54.90
2018-09-19T06:39:41.732Z,54.43
2018-09-19T06:40:17.040Z,54.51
2018-09-19T06:40:53.086Z,54.41
2018-09-19T06:41:28.402Z,53.94
2018-09-19T06:42:03.619Z,53.77
2018-09-19T06:42:38.798Z,54.09
2018-09-19T06:43:14.166Z,54.50
2018-09-19T06:43:49.517Z,53.91
2018-09-19T06:44:24.731Z,54.35
2018-09-19T06:44:59.951Z,54.52
2018-09-19T06:45:35.192Z,55.01
2018-09-19T06:46:11.552Z,54.08
2018-09-19T06:46:47.537Z,54.07
2018-09-19T06:47:23.495Z,54.17
2018-09-19T06:47:58.694Z,53.99
2018-09-19T06:48:33.883Z,54.45
2018-09-19T06:49:09.158Z,54.02
2018-09-19T06:49:44.568Z,54.78
2018-09-19T06:50:20.010Z,54.93
2018-09-19T06:50:55.385Z,54.49
2018-09-19T06:51:30.575Z,54.39
2018-09-19T06:52:05.882Z,54.47
2018-09-19T06:52:41.530Z,53.70
2018-09-19T06:53:16.817Z,54.41
2018-09-19T06:53:52.104Z,54.33
2018-09-19T06:54:27.306Z,53.60
2018-09-19T06:55:02.521Z,54.26
2018-09-19T06:55:37.892Z,53.92
2018-09-19T06:56:13.948Z,53.94
2018-09-19T06:56:49.436Z,54.17
2018-09-19T06:57:24.787Z,53.76
2018-09-19T06:58:00.168Z,54.03
2018-09-19T06:58:35.404Z,53.28
2018-09-19T06:59:11.621Z,54.30
2018-09-19T06:59:47.048Z,54.24
2018-09-19T07:00:22.375Z,53.95
2018-09-19T07:00:57.611Z,53.45
2018-09-19T07:01:32.772Z,53.23
2018-09-19T07:02:07.974Z,53.10
2018-09-19T07:02:43.710Z,53.60
2018-09-19T07:03:19.119Z,53.23
2018-09-19T07:03:54.433Z,53.61
2018-09-19T07:04:29.682Z,53.44
2018-09-19T07:05:05.318Z,53.41
2018-09-19T07:05:40.501Z,53.56
2018-09-19T07:06:16.118Z,53.74
2018-09-19T07:06:51.448Z,52.93
2018-09-19T07:07:26.666Z,53.29
2018-09-19T07:08:01.847Z,53.53
2018-09-19T07:08:37.040Z,53.02
2018-09-19T07:09:12.563Z,53.26
2018-09-19T07:09:48.222Z,52.94
2018-09-19T07:10:23.588Z,52.76
2018-09-19T07:10:58.964Z,53.15
2018-09-19T07:11:34.320Z,52.80
2018-09-19T07:12:09.542Z,53.26
2018-09-19T07:12:44.930Z,52.92
2018-09-19T07:13:20.423Z,53.24
2018-09-19T07:13:55.639Z,52.58
2018-09-19T07:14:30.970Z,52.39
2018-09-19T07:15:06.215Z,52.44
2018-09-19T07:15:41.485Z,51.55
2018-09-19T07:16:17.274Z,52.46
2018-09-19T07:16:52.617Z,52.57
2018-09-19T07:17:27.809Z,52.40
2018-09-19T07:18:02.998Z,52.36
2018-09-19T07:18:38.271Z,51.86
2018-09-19T07:19:13.584Z,52.41
2018-09-19T07:19:49.348Z,51.65
2018-09-19T07:20:24.849Z,51.71
2018-09-19T07:21:00.054Z,52.37
2018-09-19T07:21:35.740Z,51.78
2018-09-19T07:22:11.288Z,52.23
2018-09-19T07:22:46.567Z,51.54
2018-09-19T07:23:21.900Z,52.33
2018-09-19T07:23:57.321Z,51.34
2018-09-19T07:24:32.654Z,51.57
2018-09-19T07:25:08.264Z,51.64
2018-09-19T07:25:44.023Z,52.17
2018-09-19T07:26:20.163Z,51.35
2018-09-19T07:26:55.418Z,51.41
2018-09-19T07:27:30.765Z,51.06
2018-09-19T07:28:06.063Z,51.12
2018-09-19T07:28:41.287Z,51.51
2018-09-19T07:29:17.011Z,51.58
2018-09-19T07:29:52.367Z,51.54
2018-09-19T07:30:27.790Z,50.94
2018-09-19T07:31:03.009Z,51.21
2018-09-19T07:31:38.366Z,50.56
2018-09-19T07:32:13.966Z,50.65
2018-09-19T07:32:49.419Z,50.68
2018-09-19T07:33:24.751Z,50.76
2018-09-19T07:33:59.960Z,50.98
2018-09-19T07:34:35.222Z,51.69
2018-09-19T07:35:10.466Z,51.39
2018-09-19T07:35:45.805Z,50.87
2018-09-19T07:36:21.345Z,50.88